Time;durP1;ratioP1;P1;durP2;ratioP2;P2;SDS_P1;SDS_P2;PMS_P1;PMS_P2;Temp;Humidity;BMP_temperature;BMP_pressure;BME280_temperature;BME280_humidity;BME280_pressure;Samples;Min_cycle;Max_cycle;Signal;HPM_P1;HPM_P2
2022/09/05 00:02:02;;;;;;;7.28;4.50;;;;;;;19.79;74.14;100687.78;5107981;28;20031;-31
2022/09/05 00:04:52;;;;;;;9.63;4.38;;;;;;;19.86;73.83;100689.16;5089223;28;20054;-27
2022/09/05 00:07:30;;;;;;;6.00;4.10;;;;;;;19.76;75.39;100677.50;5107711;28;20031;-30
2022/09/05 00:10:07;;;;;;;6.82;4.57;;;;;;;19.80;74.10;100684.00;5107660;28;20038;-28
2022/09/05 00:12:34;;;;;;;7.18;4.20;;;;;;;20.06;73.45;100682.16;5089246;28;20507;-29
2022/09/05 00:15:28;;;;;;;7.70;4.25;;;;;;;20.12;73.29;100680.28;5089014;28;20044;-35
2022/09/05 00:18:15;;;;;;;11.20;4.22;;;;;;;20.01;74.12;100679.47;5089397;28;20028;-31
2022/09/05 00:20:52;;;;;;;6.80;4.13;;;;;;;19.88;74.62;100683.50;5107412;28;20038;-32
2022/09/05 00:23:21;;;;;;;7.95;4.30;;;;;;;19.96;74.60;100685.69;5107412;28;20039;-29
2022/09/05 00:26:27;;;;;;;6.93;4.20;;;;;;;20.10;73.64;100690.56;5107402;28;20034;-28
2022/09/05 00:29:19;;;;;;;6.53;4.35;;;;;;;19.87;75.19;100695.38;5024032;28;20044;-29
2022/09/05 00:32:20;;;;;;;6.20;4.18;;;;;;;20.22;73.18;100693.84;5088947;28;20053;-28
2022/09/05 00:35:01;;;;;;;7.38;4.63;;;;;;;19.86;75.16;100699.97;5107547;28;20051;-31
2022/09/05 00:37:33;;;;;;;6.22;4.30;;;;;;;19.83;74.82;100680.75;5089036;28;20127;-28
2022/09/05 00:40:36;;;;;;;7.85;4.57;;;;;;;20.04;74.51;100706.81;5107369;28;20032;-29
2022/09/05 00:43:10;;;;;;;7.43;4.00;;;;;;;19.99;74.34;100687.84;5088665;28;20028;-28
2022/09/05 00:45:35;;;;;;;6.00;4.22;;;;;;;20.13;74.00;100711.72;5088697;28;20054;-30
2022/09/05 00:48:45;;;;;;;7.85;4.28;;;;;;;19.98;74.97;100713.28;5107271;28;20060;-29
2022/09/05 00:51:13;;;;;;;6.65;4.07;;;;;;;19.94;74.80;100709.50;5023850;28;20034;-28
2022/09/05 00:54:06;;;;;;;7.72;4.75;;;;;;;20.01;75.24;100707.34;5095971;28;20126;-33
2022/09/05 00:56:56;;;;;;;8.07;4.53;;;;;;;19.88;76.39;100702.44;5109078;28;20564;-27
2022/09/05 00:59:43;;;;;;;7.35;4.80;;;;;;;19.91;75.80;100691.06;5092611;28;20124;-29
2022/09/05 01:02:27;;;;;;;6.60;4.60;;;;;;;19.82;76.29;100704.28;5092684;28;20027;-28
2022/09/05 01:05:05;;;;;;;6.53;4.20;;;;;;;19.77;75.69;100698.03;5110755;28;20527;-32
2022/09/05 01:07:48;;;;;;;7.57;4.90;;;;;;;19.81;75.32;100693.72;5092316;28;20122;-29
2022/09/05 01:10:18;;;;;;;7.65;4.90;;;;;;;19.73;76.48;100694.25;5092686;28;20027;-29
2022/09/05 01:13:15;;;;;;;8.23;4.88;;;;;;;19.73;76.62;100695.03;5092599;28;20028;-28
2022/09/05 01:15:52;;;;;;;7.40;4.97;;;;;;;19.75;75.76;100689.38;5092101;28;20027;-28
2022/09/05 01:18:39;;;;;;;10.15;4.80;;;;;;;19.64;76.30;100692.00;5111502;28;20495;-30
2022/09/05 01:21:29;;;;;;;7.65;4.82;;;;;;;19.66;75.89;100676.31;5092098;28;20063;-29
2022/09/05 01:24:34;;;;;;;7.90;4.38;;;;;;;19.51;76.29;100675.44;5092406;28;20057;-29
2022/09/05 01:27:37;;;;;;;8.27;4.50;;;;;;;19.55;76.51;100677.34;5069456;28;20043;-28
2022/09/05 01:30:29;;;;;;;7.25;4.72;;;;;;;19.66;75.57;100670.91;5110456;28;20107;-29
2022/09/05 01:33:17;;;;;;;6.20;4.53;;;;;;;19.42;76.18;100667.03;5091993;28;20037;-31
2022/09/05 01:36:11;;;;;;;6.88;5.20;;;;;;;19.40;75.97;100652.94;5110442;28;20066;-31
2022/09/05 01:39:03;;;;;;;8.15;4.53;;;;;;;19.44;75.91;100673.78;5110238;28;20042;-31
2022/09/05 01:41:48;;;;;;;7.93;4.63;;;;;;;19.40;76.09;100663.75;5092074;28;20594;-28
2022/09/05 01:44:50;;;;;;;6.93;4.93;;;;;;;19.36;76.77;100681.59;5091860;28;20042;-28
2022/09/05 01:47:40;;;;;;;6.35;4.32;;;;;;;19.39;76.93;100672.94;5059816;28;20056;-33
2022/09/05 01:50:08;;;;;;;6.55;4.50;;;;;;;19.27;77.30;100671.28;5110072;28;20403;-29
2022/09/05 01:52:52;;;;;;;6.78;4.68;;;;;;;19.53;76.05;100668.69;5091558;28;20032;-27
2022/09/05 01:55:50;;;;;;;7.03;4.35;;;;;;;19.66;76.03;100683.63;5109803;28;20031;-29
2022/09/05 01:58:26;;;;;;;6.50;4.93;;;;;;;19.68;75.83;100681.47;5091649;28;20035;-31
2022/09/05 02:01:34;;;;;;;7.30;4.95;;;;;;;19.66;75.97;100687.16;5109941;28;20035;-36
2022/09/05 02:04:24;;;;;;;13.25;8.30;;;;;;;19.53;77.02;100681.41;5080643;28;20100;-35
2022/09/05 02:07:20;;;;;;;9.30;6.32;;;;;;;19.36;77.63;100678.88;5109379;28;20028;-29
2022/09/05 02:10:11;;;;;;;7.97;5.20;;;;;;;19.40;78.12;100677.28;5091172;28;20028;-29
2022/09/05 02:12:57;;;;;;;7.53;4.97;;;;;;;19.32;78.67;100664.25;5109908;28;20039;-29
2022/09/05 02:15:28;;;;;;;7.82;5.10;;;;;;;19.37;78.45;100675.94;5091040;28;20097;-29
2022/09/05 02:17:59;;;;;;;8.32;5.43;;;;;;;19.49;77.53;100675.69;5110028;28;20106;-29
2022/09/05 02:20:46;;;;;;;6.85;4.70;;;;;;;19.37;77.33;100661.56;5074638;28;20796;-28
2022/09/05 02:23:27;;;;;;;6.67;4.87;;;;;;;19.37;78.17;100675.09;5109099;28;20754;-31
2022/09/05 02:26:24;;;;;;;8.57;5.00;;;;;;;19.43;77.78;100668.63;5109551;28;20127;-32
2022/09/05 02:29:13;;;;;;;9.88;5.05;;;;;;;19.26;78.48;100672.34;5090965;28;20035;-28
2022/09/05 02:31:38;;;;;;;7.18;4.95;;;;;;;19.48;77.72;100671.38;5109201;28;20501;-27
2022/09/05 02:34:34;;;;;;;7.40;5.15;;;;;;;19.28;78.42;100663.97;5109398;28;20034;-32
2022/09/05 02:37:11;;;;;;;8.10;5.30;;;;;;;19.17;79.23;100671.22;5090578;28;20053;-28
2022/09/05 02:39:46;;;;;;;6.85;4.88;;;;;;;19.31;78.15;100676.13;5091095;28;20091;-28
2022/09/05 02:42:15;;;;;;;7.53;5.22;;;;;;;19.13;78.35;100659.28;5090952;28;20071;-29
2022/09/05 02:44:49;;;;;;;8.32;5.43;;;;;;;19.66;76.21;100681.75;5109400;28;20127;-33
2022/09/05 02:47:41;;;;;;;10.63;5.97;;;;;;;19.78;75.60;100678.03;5108843;28;20031;-28
2022/09/05 02:50:43;;;;;;;7.30;5.07;;;;;;;19.49;77.29;100689.22;5104754;28;20046;-32
2022/09/05 02:53:12;;;;;;;8.68;5.20;;;;;;;19.36;77.26;100673.47;5108667;28;20406;-30
2022/09/05 02:56:20;;;;;;;8.40;5.65;;;;;;;19.37;77.88;100691.31;5090417;28;20032;-30
2022/09/05 02:59:02;;;;;;;8.13;5.55;;;;;;;19.43;77.71;100695.69;5089570;28;20088;-28
2022/09/05 03:01:42;;;;;;;14.45;6.57;;;;;;;19.45;77.58;100697.06;5108877;28;20483;-28
2022/09/05 03:04:30;;;;;;;8.48;6.15;;;;;;;19.57;76.35;100686.00;5089998;28;20135;-30
2022/09/05 03:06:55;;;;;;;;;;;;;;;19.40;77.05;100707.03;5090677;28;20027;-28
2022/09/05 03:09:39;;;;;;;8.63;5.50;;;;;;;19.46;77.43;100695.16;5108564;28;19916;-29
2022/09/05 03:12:16;;;;;;;10.95;5.88;;;;;;;19.24;78.00;100704.22;5090139;28;20261;-29
2022/09/05 03:14:45;;;;;;;10.00;5.50;;;;;;;19.28;77.63;100699.13;5090660;28;20039;-28
2022/09/05 03:17:29;;;;;;;10.82;5.50;;;;;;;19.19;78.41;100701.50;5090034;28;20520;-28
2022/09/05 03:20:13;;;;;;;9.48;5.70;;;;;;;19.13;78.51;100699.84;5107641;28;20110;-30
2022/09/05 03:22:56;;;;;;;8.23;5.28;;;;;;;18.86;80.15;100700.75;5108389;28;20062;-32
2022/09/05 03:26:15;;;;;;;8.70;5.10;;;;;;;18.86;79.75;100692.63;5108204;28;20023;-28
2022/09/05 03:28:55;;;;;;;12.02;5.78;;;;;;;18.94;79.50;100693.22;5078516;28;20369;-29
2022/09/05 03:31:48;;;;;;;10.90;6.28;;;;;;;19.26;77.95;100695.88;5107847;28;20034;-32
2022/09/05 03:34:13;;;;;;;9.48;6.40;;;;;;;19.19;78.55;100701.50;5108235;28;20107;-28
2022/09/05 03:37:10;;;;;;;7.20;5.53;;;;;;;19.21;78.65;100698.56;5108702;28;20110;-30
2022/09/05 03:40:04;;;;;;;13.70;6.20;;;;;;;19.21;77.77;100702.06;5108020;28;20250;-28
2022/09/05 03:42:57;;;;;;;8.57;6.00;;;;;;;19.15;78.16;100705.00;5089794;28;20092;-31
2022/09/05 03:45:50;;;;;;;10.30;6.18;;;;;;;19.03;79.00;100702.47;5107680;28;20410;-29
2022/09/05 03:48:50;;;;;;;10.52;6.13;;;;;;;19.20;78.89;100703.13;5108372;28;20092;-32
2022/09/05 03:51:52;;;;;;;14.50;7.13;;;;;;;18.91;79.68;100699.16;5107620;28;20045;-28
2022/09/05 03:54:20;;;;;;;9.95;6.05;;;;;;;18.85;80.28;100707.19;5089608;28;20031;-28
2022/09/05 03:57:17;;;;;;;10.45;6.35;;;;;;;18.77;80.17;100707.66;5108039;28;20119;-29
2022/09/05 04:00:24;;;;;;;9.23;6.28;;;;;;;18.95;79.34;100717.28;5089513;28;20039;-34
2022/09/05 04:03:01;;;;;;;9.20;6.13;;;;;;;18.75;80.72;100717.91;5044041;28;20109;-32
2022/09/05 04:05:32;;;;;;;12.15;6.68;;;;;;;18.86;80.33;100722.34;5027777;28;20025;-29
2022/09/05 04:08:08;;;;;;;11.00;6.55;;;;;;;18.90;79.86;100719.13;5079691;28;20039;-28
2022/09/05 04:10:51;;;;;;;10.48;6.80;;;;;;;19.02;80.14;100733.28;5107692;28;20636;-29
2022/09/05 04:13:27;;;;;;;10.40;6.38;;;;;;;19.07;79.22;100736.03;5089067;28;20567;-28
2022/09/05 04:16:40;;;;;;;10.60;6.75;;;;;;;18.99;80.06;100740.00;5089113;28;20028;-28
2022/09/05 04:19:37;;;;;;;9.20;6.05;;;;;;;19.11;79.43;100744.44;5069712;28;20499;-30
2022/09/05 04:22:17;;;;;;;7.28;5.57;;;;;;;19.22;78.93;100733.41;5089229;28;20453;-31
2022/09/05 04:25:22;;;;;;;9.20;6.20;;;;;;;19.17;79.62;100746.09;5088865;28;20070;-29
2022/09/05 04:28:25;;;;;;;14.05;7.00;;;;;;;19.37;77.79;100757.06;5095727;28;20051;-27
2022/09/05 04:30:57;;;;;;;12.75;6.47;;;;;;;19.38;78.59;100753.28;5106875;28;20092;-30
2022/09/05 04:33:28;;;;;;;16.55;7.95;;;;;;;19.39;78.60;100751.38;5088805;28;20020;-29
2022/09/05 04:36:17;;;;;;;19.02;7.43;;;;;;;19.35;78.42;100751.09;5089081;28;20413;-28
2022/09/05 04:38:44;;;;;;;10.20;6.38;;;;;;;19.60;77.12;100744.22;5107352;28;20023;-28
2022/09/05 04:41:27;;;;;;;15.90;6.50;;;;;;;19.53;77.96;100749.03;5088564;28;20088;-30
2022/09/05 04:44:17;;;;;;;13.13;7.07;;;;;;;19.68;76.92;100768.88;5088849;28;20036;-30
2022/09/05 04:47:28;;;;;;;11.48;6.50;;;;;;;19.56;77.13;100765.56;5089058;28;20027;-29
2022/09/05 04:50:03;;;;;;;9.35;6.28;;;;;;;19.58;76.83;100774.22;5023623;28;20136;-29
2022/09/05 04:53:02;;;;;;;9.13;5.75;;;;;;;19.36;77.60;100770.84;5007444;28;20033;-28
2022/09/05 04:55:34;;;;;;;7.22;5.80;;;;;;;19.59;75.74;100767.72;5089871;28;20039;-28
2022/09/05 04:58:31;;;;;;;8.13;5.82;;;;;;;19.68;77.29;100778.91;5106995;28;20028;-30
2022/09/05 05:01:03;;;;;;;10.38;6.68;;;;;;;19.84;76.37;100771.69;5088507;28;20054;-30
2022/09/05 05:03:30;;;;;;;8.63;5.50;;;;;;;20.03;76.22;100762.03;5088404;28;20051;-32
2022/09/05 05:06:10;;;;;;;8.68;5.45;;;;;;;20.19;73.62;100775.63;5088788;28;20137;-32
2022/09/05 05:08:49;;;;;;;7.93;4.90;;;;;;;20.10;72.79;100775.31;5088427;28;20031;-29
2022/09/05 05:11:19;;;;;;;8.35;5.38;;;;;;;20.17;72.12;100788.63;5106333;28;20052;-31
2022/09/05 05:13:52;;;;;;;6.88;5.00;;;;;;;20.17;70.12;100777.78;5088643;28;20035;-29
2022/09/05 05:16:17;;;;;;;9.43;5.78;;;;;;;20.57;69.36;100790.63;5071489;28;20035;-29
2022/09/05 05:18:49;;;;;;;7.32;4.65;;;;;;;20.60;67.90;100786.63;5107209;28;20020;-28
2022/09/05 05:21:17;;;;;;;8.25;5.10;;;;;;;20.48;67.14;100776.78;5088185;28;20094;-32
2022/09/05 05:23:51;;;;;;;7.07;4.82;;;;;;;20.45;68.04;100790.88;5106607;28;20444;-30
2022/09/05 05:26:35;;;;;;;7.00;4.40;;;;;;;20.43;68.09;100800.34;5106835;28;20173;-34
2022/09/05 05:29:25;;;;;;;8.35;4.70;;;;;;;20.36;67.10;100800.59;5106440;28;20119;-38
2022/09/05 05:31:55;;;;;;;7.63;4.38;;;;;;;20.55;66.17;100791.97;5106814;28;20145;-28
2022/09/05 05:34:46;;;;;;;9.90;4.65;;;;;;;20.65;67.48;100797.44;5088507;28;20115;-30
2022/09/05 05:37:14;;;;;;;8.00;4.75;;;;;;;20.95;66.21;100795.88;5080769;28;20032;-35
2022/09/05 05:39:44;;;;;;;8.63;5.07;;;;;;;21.14;65.22;100799.66;5106599;28;20039;-31
2022/09/05 05:42:23;;;;;;;5.97;4.63;;;;;;;21.25;65.88;100804.00;5107648;28;20020;-31
2022/09/05 05:44:52;;;;;;;15.90;5.63;;;;;;;21.18;64.38;100805.34;5091918;28;20043;-28
2022/09/05 05:47:34;;;;;;;10.60;5.60;;;;;;;20.92;64.89;100808.03;5110313;28;20032;-31
2022/09/05 05:50:11;;;;;;;7.35;5.35;;;;;;;21.16;65.23;100807.53;5110252;28;20031;-31
2022/09/05 05:52:40;;;;;;;8.82;5.53;;;;;;;21.18;65.14;100811.59;5110494;28;20062;-32
2022/09/05 05:56:00;;;;;;;8.95;5.57;;;;;;;20.97;66.65;100815.41;5091199;28;20042;-29
2022/09/05 05:58:59;;;;;;;7.30;4.70;;;;;;;21.08;65.83;100817.00;5010183;28;20033;-31
2022/09/05 06:01:56;;;;;;;13.75;5.30;;;;;;;20.98;67.88;100819.72;5026982;28;20076;-28
2022/09/05 06:04:45;;;;;;;7.13;4.77;;;;;;;21.23;65.14;100817.03;5091805;28;20082;-28
2022/09/05 06:07:29;;;;;;;10.55;5.30;;;;;;;21.56;64.32;100823.00;5109656;28;20032;-28
2022/09/05 06:10:26;;;;;;;7.00;4.90;;;;;;;21.67;64.24;100824.59;5110159;28;20023;-28
2022/09/05 06:13:10;;;;;;;7.95;5.00;;;;;;;21.79;62.20;100827.00;5109921;28;20031;-31
2022/09/05 06:16:13;;;;;;;7.75;4.85;;;;;;;21.91;61.35;100829.44;5109741;28;20024;-28
2022/09/05 06:19:06;;;;;;;7.78;4.75;;;;;;;21.48;61.99;100826.25;5110140;28;20043;-29
2022/09/05 06:21:41;;;;;;;7.57;5.05;;;;;;;21.31;62.99;100831.94;5091509;28;20542;-28
2022/09/05 06:24:25;;;;;;;8.27;4.97;;;;;;;21.51;61.91;100838.47;5091347;28;20067;-30
2022/09/05 06:27:00;;;;;;;8.35;4.70;;;;;;;21.46;63.09;100821.09;5109937;28;20023;-34
2022/09/05 06:29:34;;;;;;;7.88;5.05;;;;;;;21.87;61.74;100836.50;5091689;28;20028;-27
2022/09/05 06:32:18;;;;;;;7.50;4.85;;;;;;;22.06;60.98;100842.94;5091224;28;20038;-28
2022/09/05 06:34:46;;;;;;;7.63;4.97;;;;;;;21.95;59.93;100840.56;5109840;28;20518;-31
2022/09/05 06:37:33;;;;;;;10.80;6.70;;;;;;;22.47;61.56;100836.56;5109167;28;20099;-32
2022/09/05 06:40:23;;;;;;;10.20;5.13;;;;;;;22.74;57.97;100847.03;5109558;28;20055;-32
2022/09/05 06:43:01;;;;;;;7.68;5.20;;;;;;;22.49;59.51;100844.44;5109211;28;20039;-30
2022/09/05 06:45:51;;;;;;;7.93;4.80;;;;;;;22.26;59.93;100835.84;5109169;28;20028;-34
2022/09/05 06:48:26;;;;;;;28.85;16.77;;;;;;;22.36;61.00;100838.53;5109209;28;20031;-29
2022/09/05 06:51:27;;;;;;;12.48;5.65;;;;;;;22.24;60.48;100840.75;5090719;28;20032;-31
2022/09/05 06:53:52;;;;;;;9.02;6.55;;;;;;;22.65;60.94;100840.56;5109185;28;20069;-33
2022/09/05 06:56:59;;;;;;;6.18;4.00;;;;;;;22.48;59.14;100846.34;5109284;28;20744;-28
2022/09/05 07:00:00;;;;;;;6.38;3.58;;;;;;;22.44;56.75;100832.50;5073491;28;20038;-31
2022/09/05 07:02:54;;;;;;;15.82;10.02;;;;;;;22.66;58.42;100840.28;5090591;28;20040;-30
2022/09/05 07:05:38;;;;;;;10.00;6.68;;;;;;;23.09;56.71;100828.88;5090371;28;20044;-28
2022/09/05 07:08:20;;;;;;;7.55;4.18;;;;;;;22.84;56.27;100838.81;5108953;28;20483;-36
2022/09/05 07:11:13;;;;;;;7.28;4.18;;;;;;;22.61;57.34;100848.44;5108690;28;20024;-29
2022/09/05 07:13:44;;;;;;;8.13;5.10;;;;;;;22.80;58.59;100845.06;5108983;28;20031;-27
2022/09/05 07:16:28;;;;;;;7.80;4.45;;;;;;;23.11;59.27;100843.00;5089909;28;20035;-30
2022/09/05 07:19:29;;;;;;;7.05;3.92;;;;;;;23.43;57.12;100841.63;5108708;28;20092;-31
2022/09/05 07:22:13;;;;;;;7.57;3.50;;;;;;;23.05;57.11;100846.84;5090301;28;20029;-30
2022/09/05 07:24:44;;;;;;;7.72;3.90;;;;;;;23.06;57.52;100840.31;5089813;28;20608;-29
2022/09/05 07:27:14;;;;;;;5.45;3.30;;;;;;;23.61;55.77;100832.75;5096863;28;20032;-29
2022/09/05 07:29:43;;;;;;;5.93;3.67;;;;;;;23.58;55.87;100827.06;5079152;28;20032;-30
2022/09/05 07:32:16;;;;;;;5.60;3.53;;;;;;;23.77;54.61;100835.34;5080548;28;20027;-28
2022/09/05 07:34:45;;;;;;;5.15;3.30;;;;;;;23.59;55.58;100840.41;5079910;28;20020;-29
2022/09/05 07:37:19;;;;;;;5.60;3.35;;;;;;;23.32;55.86;100843.66;5078160;28;20101;-28
2022/09/05 07:39:54;;;;;;;6.28;3.28;;;;;;;23.51;56.70;100834.75;5078568;28;20031;-31
2022/09/05 07:42:41;;;;;;;5.47;3.38;;;;;;;23.80;55.22;100832.03;5099307;28;20039;-29
2022/09/05 07:45:23;;;;;;;9.38;3.80;;;;;;;23.19;55.22;100828.78;5078304;28;20042;-28
2022/09/05 07:48:13;;;;;;;6.28;3.83;;;;;;;22.80;56.01;100840.47;5085692;28;20104;-29
2022/09/05 07:51:01;;;;;;;4.40;3.10;;;;;;;23.31;56.54;100831.13;5098157;28;20036;-32
2022/09/05 07:53:29;;;;;;;5.30;3.42;;;;;;;23.67;55.53;100819.91;5098235;28;20024;-32
2022/09/05 07:55:57;;;;;;;6.18;3.63;;;;;;;23.98;55.50;100808.69;5079305;28;20052;-29
2022/09/05 07:58:40;;;;;;;7.15;4.05;;;;;;;23.91;52.77;100819.94;5077867;28;20112;-30
2022/09/05 08:01:08;;;;;;;5.78;3.10;;;;;;;24.10;52.58;100833.63;5080583;28;20092;-30
2022/09/05 08:03:34;;;;;;;7.22;3.80;;;;;;;24.04;54.31;100830.13;5085188;28;20507;-29
2022/09/05 08:06:05;;;;;;;5.05;3.28;;;;;;;24.13;51.99;100832.22;5101883;28;20062;-30
2022/09/05 08:08:54;;;;;;;7.65;3.47;;;;;;;24.06;54.23;100827.94;5089430;28;20032;-32
2022/09/05 08:11:22;;;;;;;7.20;3.55;;;;;;;24.00;52.65;100823.63;5095892;28;21068;-29
2022/09/05 08:13:56;;;;;;;6.03;3.30;;;;;;;23.82;52.34;100799.88;5089207;28;20035;-28
2022/09/05 08:16:24;;;;;;;5.40;3.10;;;;;;;23.74;52.17;100809.50;5089232;28;20089;-31
2022/09/05 08:18:52;;;;;;;5.70;3.15;;;;;;;23.87;54.16;100821.63;5089518;28;20027;-28
2022/09/05 08:21:42;;;;;;;8.45;3.10;;;;;;;23.50;54.49;100809.47;5088892;28;20609;-28
2022/09/05 08:24:11;;;;;;;5.18;3.42;;;;;;;23.64;53.52;100813.13;5107504;28;20024;-28
2022/09/05 08:26:49;;;;;;;6.15;3.13;;;;;;;24.10;53.19;100805.56;5088994;28;20063;-31
2022/09/05 08:29:20;;;;;;;7.75;3.38;;;;;;;24.41;51.55;100806.75;5088539;28;20035;-30
2022/09/05 08:31:52;;;;;;;5.45;3.50;;;;;;;24.31;53.28;100811.56;5107047;28;20079;-31
2022/09/05 08:34:36;;;;;;;7.45;3.13;;;;;;;24.36;49.85;100809.56;5089026;28;20034;-29
2022/09/05 08:37:04;;;;;;;4.72;2.88;;;;;;;24.97;51.30;100804.38;5107239;28;20031;-28
2022/09/05 08:39:31;;;;;;;5.85;3.05;;;;;;;25.23;49.89;100799.28;5088641;28;20122;-29
2022/09/05 08:42:06;;;;;;;9.02;3.70;;;;;;;25.29;49.66;100814.47;5088897;28;20031;-30
2022/09/05 08:44:49;;;;;;;7.25;3.38;;;;;;;24.89;49.23;100816.75;5107410;28;20169;-32
2022/09/05 08:47:21;;;;;;;6.65;3.33;;;;;;;24.09;52.55;100815.66;5106708;28;20122;-29
2022/09/05 08:49:52;;;;;;;6.43;3.38;;;;;;;23.91;53.89;100798.16;5106957;28;20036;-29
2022/09/05 08:52:37;;;;;;;5.88;3.47;;;;;;;23.97;50.57;100802.44;5088783;28;20032;-29
2022/09/05 08:55:30;;;;;;;6.50;3.42;;;;;;;24.50;51.54;100795.22;5088476;28;20041;-29
2022/09/05 08:58:20;;;;;;;5.43;2.90;;;;;;;24.40;50.23;100796.97;5088761;28;20818;-29
2022/09/05 09:00:54;;;;;;;6.43;3.40;;;;;;;24.32;49.71;100792.19;5088644;28;20487;-29
2022/09/05 09:03:49;;;;;;;6.70;3.35;;;;;;;24.89;49.69;100789.47;5088380;28;20044;-28
2022/09/05 09:06:44;;;;;;;5.78;2.72;;;;;;;25.15;47.89;100789.88;5088706;28;20487;-28
2022/09/05 09:09:32;;;;;;;5.65;2.92;;;;;;;25.46;47.93;100798.34;5088470;28;20108;-35
2022/09/05 09:12:21;;;;;;;5.90;3.33;;;;;;;25.26;47.14;100788.59;5088609;28;20028;-31
2022/09/05 09:14:54;;;;;;;9.38;3.35;;;;;;;24.92;48.11;100777.16;5088605;28;20860;-32
2022/09/05 09:17:44;;;;;;;6.25;3.40;;;;;;;25.09;49.51;100782.03;5089901;28;20030;-28
2022/09/05 09:20:14;;;;;;;4.38;2.88;;;;;;;25.04;46.14;100780.22;5110296;28;20043;-30
2022/09/05 09:23:02;;;;;;;6.55;3.03;;;;;;;25.25;44.67;100773.34;5092198;28;20023;-28
2022/09/05 09:25:38;;;;;;;5.57;3.10;;;;;;;25.58;47.44;100777.91;5092260;28;20034;-30
2022/09/05 09:28:37;;;;;;;5.00;3.03;;;;;;;26.18;44.68;100779.75;5111066;28;20499;-37
2022/09/05 09:31:14;;;;;;;5.07;3.33;;;;;;;26.62;46.23;100772.75;5089357;28;20043;-33
2022/09/05 09:34:31;;;;;;;6.40;3.20;;;;;;;26.45;44.62;100766.00;5092240;28;20491;-34
2022/09/05 09:37:29;;;;;;;7.70;3.60;;;;;;;26.67;44.61;100780.06;5068578;28;20065;-28
2022/09/05 09:46:45;;;;;;;7.10;3.53;;;;;;;26.26;46.97;100781.75;5110714;28;20057;-30
2022/09/05 09:49:19;;;;;;;5.47;3.28;;;;;;;26.48;46.36;100782.91;5091573;28;20558;-30
2022/09/05 09:52:18;;;;;;;5.68;3.80;;;;;;;26.08;46.49;100782.72;5110249;28;20038;-29
2022/09/05 09:55:31;;;;;;;6.95;3.90;;;;;;;25.85;48.49;100771.66;5110144;28;20038;-28
2022/09/05 09:58:25;;;;;;;5.32;4.00;;;;;;;25.26;46.42;100780.41;5102480;28;20046;-31
2022/09/05 10:01:03;;;;;;;5.60;3.90;;;;;;;25.25;47.66;100772.50;5109645;28;20031;-30
2022/09/05 10:03:40;;;;;;;;;;;;;;;25.17;49.46;100767.72;5091609;28;20048;-30
2022/09/05 10:06:35;;;;;;;5.95;3.67;;;;;;;25.38;47.56;100769.00;5109572;28;19942;-28
2022/09/05 10:09:09;;;;;;;8.02;4.00;;;;;;;25.46;47.50;100765.59;5109255;28;20028;-34
2022/09/05 10:12:06;;;;;;;7.57;3.80;;;;;;;25.83;46.22;100765.69;5109392;28;20110;-34
2022/09/05 10:14:56;;;;;;;5.13;3.50;;;;;;;26.50;46.13;100753.31;5090839;28;20110;-30
2022/09/05 10:17:39;;;;;;;6.47;3.70;;;;;;;26.82;46.77;100760.53;5109143;28;20032;-30
2022/09/05 10:20:17;;;;;;;5.38;3.22;;;;;;;27.20;42.99;100765.59;5109551;28;20028;-35
2022/09/05 10:22:55;;;;;;;5.82;3.25;;;;;;;27.46;43.40;100760.25;5090728;28;20053;-30
2022/09/05 10:25:33;;;;;;;5.10;3.05;;;;;;;27.52;42.90;100760.94;5090648;28;20024;-29
2022/09/05 10:27:59;;;;;;;4.72;2.92;;;;;;;28.07;42.80;100760.47;5108603;28;20116;-29
2022/09/05 10:30:42;;;;;;;6.57;3.05;;;;;;;28.31;38.57;100749.03;5090898;28;20740;-30
2022/09/05 10:33:32;;;;;;;5.40;3.25;;;;;;;28.44;39.38;100761.81;5090382;28;20028;-29
2022/09/05 10:36:23;;;;;;;5.13;3.10;;;;;;;28.48;39.55;100761.16;5090837;28;20027;-29
2022/09/05 10:39:13;;;;;;;3.97;2.80;;;;;;;28.21;40.80;100754.84;5076244;28;20036;-29
2022/09/05 10:41:54;;;;;;;4.97;3.45;;;;;;;28.43;40.90;100751.94;5073552;28;20043;-31
2022/09/05 10:44:33;;;;;;;4.70;3.10;;;;;;;28.85;38.58;100752.28;5098569;28;20078;-31
2022/09/05 10:47:22;;;;;;;5.70;3.65;;;;;;;27.39;40.26;100748.97;5085840;28;20028;-30
2022/09/05 10:49:55;;;;;;;5.70;2.95;;;;;;;26.70;40.92;100757.53;5108652;28;20028;-36
2022/09/05 10:52:39;;;;;;;6.10;3.10;;;;;;;26.27;43.29;100745.09;5090085;28;20074;-30
2022/09/05 10:55:20;;;;;;;5.20;3.05;;;;;;;26.25;42.92;100747.31;5108309;28;20513;-29
2022/09/05 10:58:16;;;;;;;5.03;2.80;;;;;;;26.24;43.64;100748.47;5090218;28;20096;-29
2022/09/05 11:00:51;;;;;;;4.57;2.97;;;;;;;26.12;44.75;100742.72;5090233;28;20092;-29
2022/09/05 11:03:28;;;;;;;5.15;2.92;;;;;;;26.05;42.54;100722.06;5089364;28;20064;-32
2022/09/05 11:06:00;;;;;;;4.47;2.72;;;;;;;25.81;42.62;100733.22;5090173;28;20062;-31
2022/09/05 11:08:52;;;;;;;3.72;2.85;;;;;;;26.17;43.38;100734.38;5089877;28;20491;-29
2022/09/05 11:11:21;;;;;;;5.28;3.20;;;;;;;27.07;40.92;100731.69;5089694;28;20031;-29
2022/09/05 11:13:49;;;;;;;4.25;2.60;;;;;;;28.16;38.57;100731.13;5089909;28;20024;-29
2022/09/05 11:16:26;;;;;;;4.55;2.90;;;;;;;28.49;38.48;100724.38;5089928;28;20020;-32
2022/09/05 11:19:04;;;;;;;5.43;3.78;;;;;;;28.65;38.23;100709.84;5108126;28;20032;-36
2022/09/05 11:21:41;;;;;;;4.85;3.25;;;;;;;28.90;36.26;100710.13;5089894;28;20020;-29
2022/09/05 11:24:51;;;;;;;4.57;2.90;;;;;;;29.53;35.91;100715.88;5108023;28;20067;-29
2022/09/05 11:27:26;;;;;;;5.78;2.63;;;;;;;29.61;35.05;100720.53;5044059;28;20032;-35
2022/09/05 11:30:04;;;;;;;3.85;2.40;;;;;;;29.55;35.36;100708.13;5098149;28;20044;-29
2022/09/05 11:33:08;;;;;;;2.95;2.28;;;;;;;29.17;33.84;100706.16;5107738;28;20944;-31
2022/09/05 11:35:55;;;;;;;4.82;2.65;;;;;;;29.32;33.71;100704.84;5089459;28;20027;-31
2022/09/05 11:38:55;;;;;;;3.83;2.10;;;;;;;29.56;34.28;100687.72;5089130;28;20521;-33
2022/09/05 11:41:46;;;;;;;4.63;2.33;;;;;;;29.63;35.32;100676.22;5107230;28;20093;-30
2022/09/05 11:44:27;;;;;;;3.92;2.55;;;;;;;29.72;36.80;100698.97;5089256;28;20486;-29
2022/09/05 11:47:10;;;;;;;3.22;2.22;;;;;;;29.94;36.02;100689.63;5088838;28;20046;-33
2022/09/05 11:50:01;;;;;;;2.88;2.10;;;;;;;29.44;37.79;100685.72;5107498;28;20548;-29
2022/09/05 11:52:45;;;;;;;4.45;2.80;;;;;;;29.63;35.19;100682.53;5088892;28;20431;-30
2022/09/05 11:55:13;;;;;;;4.00;2.10;;;;;;;29.51;34.26;100676.94;5106704;28;20038;-36
2022/09/05 11:58:27;;;;;;;3.08;2.10;;;;;;;29.76;32.98;100685.38;5089019;28;20100;-30
2022/09/05 12:00:55;;;;;;;4.10;2.20;;;;;;;29.42;34.68;100676.16;5099588;28;20036;-29
2022/09/05 12:03:54;;;;;;;7.07;4.65;;;;;;;29.03;36.04;100680.84;5107023;28;20228;-34
2022/09/05 12:06:41;;;;;;;3.92;2.20;;;;;;;28.44;37.99;100674.03;5089151;28;20031;-31
2022/09/05 12:09:24;;;;;;;4.72;2.50;;;;;;;28.36;37.05;100655.63;5107200;28;20042;-30
2022/09/05 12:12:25;;;;;;;3.83;2.55;;;;;;;28.08;38.20;100668.06;5088828;28;20097;-30
2022/09/05 12:15:19;;;;;;;5.72;2.72;;;;;;;27.90;39.49;100670.78;5088748;28;20023;-29
2022/09/05 12:18:05;;;;;;;3.55;2.10;;;;;;;27.55;39.14;100650.72;5088529;28;20024;-33
2022/09/05 12:20:59;;;;;;;5.60;2.60;;;;;;;27.49;38.99;100662.97;5088927;28;20031;-31
2022/09/05 12:23:54;;;;;;;3.50;2.22;;;;;;;27.60;37.99;100664.25;5107339;28;20123;-32
2022/09/05 12:26:46;;;;;;;3.65;2.28;;;;;;;27.77;39.18;100658.81;5088428;28;20027;-29
2022/09/05 12:29:18;;;;;;;4.25;2.50;;;;;;;27.84;37.50;100645.44;5106574;28;20035;-35
2022/09/05 12:31:53;;;;;;;4.18;2.30;;;;;;;28.00;38.96;100640.31;5106743;28;20042;-29
2022/09/05 12:34:40;;;;;;;3.53;2.13;;;;;;;28.40;36.11;100653.84;5106462;28;20084;-31
2022/09/05 12:37:11;;;;;;;3.72;2.13;;;;;;;28.52;36.75;100655.16;5106252;28;20465;-33
2022/09/05 12:39:53;;;;;;;4.78;2.53;;;;;;;28.63;36.54;100626.25;5088024;28;20126;-32
2022/09/05 12:42:52;;;;;;;3.83;2.50;;;;;;;28.88;37.77;100645.69;5087950;28;20024;-36
2022/09/05 12:45:40;;;;;;;4.25;2.40;;;;;;;28.33;35.65;100655.47;5106013;28;20042;-30
2022/09/05 12:48:34;;;;;;;2.95;2.20;;;;;;;28.67;37.45;100640.09;5088197;28;20127;-32